sensor_id;sensor_type;location;lat;lon;timestamp;pressure;altitude;pressure_sealevel;temperature;humidity
42601;BME280;28229;48.856;9.088;2022-07-29T00:01:07;97775.28;;;19.86;74.28
42601;BME280;28229;48.856;9.088;2022-07-29T00:03:33;97770.34;;;19.98;74.02
42601;BME280;28229;48.856;9.088;2022-07-29T00:05:59;97767.16;;;19.96;73.86
42601;BME280;28229;48.856;9.088;2022-07-29T00:08:24;97763.47;;;19.92;73.84
42601;BME280;28229;48.856;9.088;2022-07-29T00:10:50;97761.63;;;19.87;74.28
42601;BME280;28229;48.856;9.088;2022-07-29T00:13:16;97760.28;;;19.90;74.21
42601;BME280;28229;48.856;9.088;2022-07-29T00:15:42;97751.06;;;19.77;73.99
42601;BME280;28229;48.856;9.088;2022-07-29T00:18:08;97756.19;;;19.73;74.52
42601;BME280;28229;48.856;9.088;2022-07-29T00:20:33;97759.34;;;19.75;74.29
42601;BME280;28229;48.856;9.088;2022-07-29T00:22:59;97758.84;;;19.68;75.06
42601;BME280;28229;48.856;9.088;2022-07-29T00:25:25;97768.31;;;19.55;75.48
42601;BME280;28229;48.856;9.088;2022-07-29T00:27:51;97765.41;;;19.52;75.76
42601;BME280;28229;48.856;9.088;2022-07-29T00:30:17;97762.19;;;19.50;75.49
42601;BME280;28229;48.856;9.088;2022-07-29T00:32:42;97763.28;;;19.49;75.27
42601;BME280;28229;48.856;9.088;2022-07-29T00:35:09;97760.63;;;19.49;75.70
42601;BME280;28229;48.856;9.088;2022-07-29T00:37:54;97761.69;;;19.48;76.01
42601;BME280;28229;48.856;9.088;2022-07-29T00:40:20;97754.81;;;19.76;75.29
42601;BME280;28229;48.856;9.088;2022-07-29T00:42:49;97756.19;;;19.68;75.11
42601;BME280;28229;48.856;9.088;2022-07-29T00:45:16;97751.09;;;19.72;74.92
42601;BME280;28229;48.856;9.088;2022-07-29T00:47:42;97752.56;;;19.54;75.88
42601;BME280;28229;48.856;9.088;2022-07-29T00:50:10;97736.69;;;19.68;75.91
42601;BME280;28229;48.856;9.088;2022-07-29T00:52:38;97739.47;;;19.57;75.95
42601;BME280;28229;48.856;9.088;2022-07-29T00:55:06;97739.66;;;19.66;75.28
42601;BME280;28229;48.856;9.088;2022-07-29T00:57:33;97739.59;;;19.71;75.20
42601;BME280;28229;48.856;9.088;2022-07-29T01:00:00;97731.75;;;19.56;75.99
42601;BME280;28229;48.856;9.088;2022-07-29T01:02:26;97731.56;;;19.47;76.38
42601;BME280;28229;48.856;9.088;2022-07-29T01:04:53;97722.22;;;19.45;76.34
42601;BME280;28229;48.856;9.088;2022-07-29T01:07:19;97728.06;;;19.52;75.99
42601;BME280;28229;48.856;9.088;2022-07-29T01:09:45;97730.41;;;19.53;76.11
42601;BME280;28229;48.856;9.088;2022-07-29T01:12:17;97715.28;;;19.49;76.10
42601;BME280;28229;48.856;9.088;2022-07-29T01:14:45;97711.63;;;19.39;76.72
42601;BME280;28229;48.856;9.088;2022-07-29T01:20:14;97710.25;;;19.42;75.74
42601;BME280;28229;48.856;9.088;2022-07-29T01:30:51;97732.81;;;19.20;77.01
42601;BME280;28229;48.856;9.088;2022-07-29T01:33:17;97726.47;;;19.16;77.38
42601;BME280;28229;48.856;9.088;2022-07-29T01:36:13;97718.09;;;19.28;77.44
42601;BME280;28229;48.856;9.088;2022-07-29T01:38:43;97723.84;;;19.11;77.67
42601;BME280;28229;48.856;9.088;2022-07-29T01:41:15;97718.75;;;19.15;77.61
42601;BME280;28229;48.856;9.088;2022-07-29T01:43:54;97721.44;;;19.10;77.39
42601;BME280;28229;48.856;9.088;2022-07-29T01:46:31;97721.97;;;19.07;77.57
42601;BME280;28229;48.856;9.088;2022-07-29T01:49:15;97719.34;;;19.01;78.01
42601;BME280;28229;48.856;9.088;2022-07-29T01:51:51;97721.50;;;18.99;78.13
42601;BME280;28229;48.856;9.088;2022-07-29T01:54:30;97719.44;;;18.91;78.91
42601;BME280;28229;48.856;9.088;2022-07-29T01:56:59;97717.28;;;18.93;78.55
42601;BME280;28229;48.856;9.088;2022-07-29T01:59:26;97723.16;;;18.90;79.19
42601;BME280;28229;48.856;9.088;2022-07-29T02:01:54;97725.31;;;18.88;79.01
42601;BME280;28229;48.856;9.088;2022-07-29T02:04:21;97717.34;;;18.83;79.27
42601;BME280;28229;48.856;9.088;2022-07-29T02:06:51;97712.75;;;18.94;78.81
42601;BME280;28229;48.856;9.088;2022-07-29T02:09:19;97710.41;;;18.82;79.30
42601;BME280;28229;48.856;9.088;2022-07-29T02:11:51;97705.56;;;18.89;79.19
42601;BME280;28229;48.856;9.088;2022-07-29T02:14:19;97703.84;;;19.09;78.23
42601;BME280;28229;48.856;9.088;2022-07-29T02:16:47;97696.06;;;19.12;77.82
42601;BME280;28229;48.856;9.088;2022-07-29T02:19:14;97702.31;;;18.97;77.98
42601;BME280;28229;48.856;9.088;2022-07-29T02:21:43;97700.06;;;19.15;77.73
42601;BME280;28229;48.856;9.088;2022-07-29T02:24:11;97699.56;;;19.13;77.46
42601;BME280;28229;48.856;9.088;2022-07-29T02:26:40;97702.81;;;19.05;77.88
42601;BME280;28229;48.856;9.088;2022-07-29T02:29:07;97698.88;;;18.97;78.10
42601;BME280;28229;48.856;9.088;2022-07-29T02:31:35;97702.03;;;19.04;77.92
42601;BME280;28229;48.856;9.088;2022-07-29T02:34:03;97708.81;;;18.86;78.44
42601;BME280;28229;48.856;9.088;2022-07-29T02:36:31;97711.22;;;18.82;78.72
42601;BME280;28229;48.856;9.088;2022-07-29T02:39:00;97719.47;;;18.81;79.04
42601;BME280;28229;48.856;9.088;2022-07-29T02:41:35;97721.03;;;18.87;78.53
42601;BME280;28229;48.856;9.088;2022-07-29T02:44:11;97713.47;;;18.55;79.59
42601;BME280;28229;48.856;9.088;2022-07-29T02:46:42;97707.41;;;18.39;80.67
42601;BME280;28229;48.856;9.088;2022-07-29T02:52:01;97728.25;;;18.26;82.08
42601;BME280;28229;48.856;9.088;2022-07-29T02:54:39;97719.47;;;18.26;81.75
42601;BME280;28229;48.856;9.088;2022-07-29T02:57:13;97719.22;;;18.22;82.35
42601;BME280;28229;48.856;9.088;2022-07-29T02:59:42;97708.81;;;18.26;82.02
42601;BME280;28229;48.856;9.088;2022-07-29T03:02:11;97715.19;;;18.25;81.89
42601;BME280;28229;48.856;9.088;2022-07-29T03:04:40;97708.28;;;18.29;81.89
42601;BME280;28229;48.856;9.088;2022-07-29T03:07:09;97716.03;;;18.20;82.56
42601;BME280;28229;48.856;9.088;2022-07-29T03:09:36;97721.34;;;18.20;82.63
42601;BME280;28229;48.856;9.088;2022-07-29T03:12:04;97711.50;;;18.21;82.43
42601;BME280;28229;48.856;9.088;2022-07-29T03:14:30;97721.31;;;18.31;81.87
42601;BME280;28229;48.856;9.088;2022-07-29T03:16:57;97722.34;;;18.35;81.77
42601;BME280;28229;48.856;9.088;2022-07-29T03:19:23;97721.72;;;18.53;81.13
42601;BME280;28229;48.856;9.088;2022-07-29T03:21:49;97720.19;;;18.47;80.94
42601;BME280;28229;48.856;9.088;2022-07-29T03:24:26;97713.28;;;18.36;81.27
42601;BME280;28229;48.856;9.088;2022-07-29T03:26:54;97719.19;;;18.33;81.40
42601;BME280;28229;48.856;9.088;2022-07-29T03:29:20;97716.81;;;18.26;82.26
42601;BME280;28229;48.856;9.088;2022-07-29T03:31:46;97722.41;;;18.24;82.42
42601;BME280;28229;48.856;9.088;2022-07-29T03:34:12;97722.41;;;18.19;83.32
42601;BME280;28229;48.856;9.088;2022-07-29T03:36:38;97718.69;;;18.20;82.90
42601;BME280;28229;48.856;9.088;2022-07-29T03:39:05;97724.00;;;18.25;82.73
42601;BME280;28229;48.856;9.088;2022-07-29T03:41:32;97719.72;;;18.30;82.00
42601;BME280;28229;48.856;9.088;2022-07-29T03:43:59;97721.56;;;18.34;82.08
42601;BME280;28229;48.856;9.088;2022-07-29T03:46:26;97727.94;;;18.33;82.35
42601;BME280;28229;48.856;9.088;2022-07-29T03:48:58;97726.41;;;18.27;82.70
42601;BME280;28229;48.856;9.088;2022-07-29T03:51:26;97730.38;;;18.30;82.72
42601;BME280;28229;48.856;9.088;2022-07-29T03:53:52;97726.94;;;18.24;83.12
42601;BME280;28229;48.856;9.088;2022-07-29T03:56:21;97719.22;;;18.22;83.37
42601;BME280;28229;48.856;9.088;2022-07-29T03:58:49;97718.09;;;18.29;83.39
42601;BME280;28229;48.856;9.088;2022-07-29T04:01:15;97722.91;;;18.32;83.12
42601;BME280;28229;48.856;9.088;2022-07-29T04:03:44;97716.50;;;18.38;82.62
42601;BME280;28229;48.856;9.088;2022-07-29T04:06:11;97718.88;;;18.39;82.49
42601;BME280;28229;48.856;9.088;2022-07-29T04:08:37;97716.50;;;18.38;82.49
42601;BME280;28229;48.856;9.088;2022-07-29T04:11:04;97721.22;;;18.46;82.18
42601;BME280;28229;48.856;9.088;2022-07-29T04:13:31;97718.03;;;18.49;82.31
42601;BME280;28229;48.856;9.088;2022-07-29T04:15:57;97719.09;;;18.48;82.20
42601;BME280;28229;48.856;9.088;2022-07-29T04:18:23;97715.84;;;18.61;81.48
42601;BME280;28229;48.856;9.088;2022-07-29T04:20:49;97718.53;;;18.56;81.70
42601;BME280;28229;48.856;9.088;2022-07-29T04:23:15;97727.28;;;18.67;81.25
42601;BME280;28229;48.856;9.088;2022-07-29T04:25:41;97724.88;;;18.65;80.63
42601;BME280;28229;48.856;9.088;2022-07-29T04:28:09;97727.50;;;18.76;80.66
42601;BME280;28229;48.856;9.088;2022-07-29T04:30:36;97721.13;;;18.72;80.41
42601;BME280;28229;48.856;9.088;2022-07-29T04:33:05;97723.19;;;18.80;80.10
42601;BME280;28229;48.856;9.088;2022-07-29T04:35:36;97729.59;;;18.84;79.19
42601;BME280;28229;48.856;9.088;2022-07-29T04:38:04;97733.06;;;18.79;78.78
42601;BME280;28229;48.856;9.088;2022-07-29T04:40:30;97731.72;;;18.82;78.64
42601;BME280;28229;48.856;9.088;2022-07-29T04:42:59;97733.56;;;18.92;77.89
42601;BME280;28229;48.856;9.088;2022-07-29T04:45:26;97725.38;;;18.68;79.09
42601;BME280;28229;48.856;9.088;2022-07-29T04:47:52;97726.44;;;18.72;78.31
42601;BME280;28229;48.856;9.088;2022-07-29T04:50:17;97722.69;;;18.83;78.06
42601;BME280;28229;48.856;9.088;2022-07-29T04:52:43;97719.44;;;18.91;77.26
42601;BME280;28229;48.856;9.088;2022-07-29T04:55:09;97715.47;;;18.83;77.14
42601;BME280;28229;48.856;9.088;2022-07-29T04:57:35;97713.28;;;18.91;77.37
42601;BME280;28229;48.856;9.088;2022-07-29T05:00:01;97715.19;;;18.85;77.84
42601;BME280;28229;48.856;9.088;2022-07-29T05:02:27;97720.16;;;19.02;77.08
42601;BME280;28229;48.856;9.088;2022-07-29T05:04:54;97720.47;;;18.95;77.62
42601;BME280;28229;48.856;9.088;2022-07-29T05:07:20;97718.03;;;19.04;77.62
42601;BME280;28229;48.856;9.088;2022-07-29T05:09:45;97724.91;;;19.10;77.14
42601;BME280;28229;48.856;9.088;2022-07-29T05:12:11;97720.97;;;19.02;78.00
42601;BME280;28229;48.856;9.088;2022-07-29T05:14:37;97725.25;;;18.98;77.98
42601;BME280;28229;48.856;9.088;2022-07-29T05:17:03;97733.19;;;19.03;77.83
42601;BME280;28229;48.856;9.088;2022-07-29T05:19:29;97725.88;;;19.19;77.42
42601;BME280;28229;48.856;9.088;2022-07-29T05:21:54;97734.06;;;19.33;76.11
42601;BME280;28229;48.856;9.088;2022-07-29T05:24:20;97726.28;;;19.37;76.39
42601;BME280;28229;48.856;9.088;2022-07-29T05:26:46;97725.94;;;19.49;75.50
42601;BME280;28229;48.856;9.088;2022-07-29T05:29:12;97741.13;;;19.48;74.45
42601;BME280;28229;48.856;9.088;2022-07-29T05:31:38;97732.25;;;19.58;74.51
42601;BME280;28229;48.856;9.088;2022-07-29T05:34:12;97732.81;;;19.55;74.78
42601;BME280;28229;48.856;9.088;2022-07-29T05:36:38;97732.94;;;19.74;74.15
42601;BME280;28229;48.856;9.088;2022-07-29T05:39:04;97739.81;;;19.80;73.88
42601;BME280;28229;48.856;9.088;2022-07-29T05:41:33;97739.72;;;19.90;73.21
42601;BME280;28229;48.856;9.088;2022-07-29T05:43:59;97738.25;;;20.03;72.84
42601;BME280;28229;48.856;9.088;2022-07-29T05:46:25;97735.53;;;20.08;72.15
42601;BME280;28229;48.856;9.088;2022-07-29T05:48:50;97740.03;;;20.13;71.90
42601;BME280;28229;48.856;9.088;2022-07-29T05:51:16;97742.97;;;20.11;72.25
42601;BME280;28229;48.856;9.088;2022-07-29T05:53:42;97741.91;;;20.12;72.13
42601;BME280;28229;48.856;9.088;2022-07-29T05:56:08;97747.13;;;20.23;72.10
42601;BME280;28229;48.856;9.088;2022-07-29T05:58:34;97750.81;;;20.27;72.51
42601;BME280;28229;48.856;9.088;2022-07-29T06:00:59;97751.44;;;20.43;71.33
42601;BME280;28229;48.856;9.088;2022-07-29T06:03:26;97754.25;;;20.51;71.16
42601;BME280;28229;48.856;9.088;2022-07-29T06:05:53;97749.81;;;20.66;70.33
42601;BME280;28229;48.856;9.088;2022-07-29T06:08:19;97753.47;;;20.75;69.57
42601;BME280;28229;48.856;9.088;2022-07-29T06:10:44;97756.31;;;20.84;69.28
42601;BME280;28229;48.856;9.088;2022-07-29T06:13:11;97759.09;;;20.92;69.08
42601;BME280;28229;48.856;9.088;2022-07-29T06:15:38;97763.09;;;20.95;68.46
42601;BME280;28229;48.856;9.088;2022-07-29T06:18:04;97764.81;;;21.05;68.97
42601;BME280;28229;48.856;9.088;2022-07-29T06:20:34;97767.34;;;21.15;68.68
42601;BME280;28229;48.856;9.088;2022-07-29T06:23:00;97769.31;;;21.28;67.75
42601;BME280;28229;48.856;9.088;2022-07-29T06:25:27;97763.75;;;21.39;67.12
42601;BME280;28229;48.856;9.088;2022-07-29T06:27:57;97763.16;;;21.47;66.93
42601;BME280;28229;48.856;9.088;2022-07-29T06:30:23;97773.91;;;21.61;66.77
42601;BME280;28229;48.856;9.088;2022-07-29T06:32:48;97770.16;;;21.76;66.95
42601;BME280;28229;48.856;9.088;2022-07-29T06:35:15;97772.09;;;21.89;65.22
42601;BME280;28229;48.856;9.088;2022-07-29T06:37:41;97777.94;;;21.91;64.95
42601;BME280;28229;48.856;9.088;2022-07-29T06:40:07;97778.53;;;21.88;65.27
42601;BME280;28229;48.856;9.088;2022-07-29T06:42:51;97770.78;;;21.86;65.63
42601;BME280;28229;48.856;9.088;2022-07-29T06:45:17;97776.03;;;21.92;65.52
42601;BME280;28229;48.856;9.088;2022-07-29T06:47:43;97779.00;;;21.90;65.33
42601;BME280;28229;48.856;9.088;2022-07-29T06:50:09;97784.88;;;21.92;65.62
42601;BME280;28229;48.856;9.088;2022-07-29T06:52:40;97790.06;;;22.02;65.22
42601;BME280;28229;48.856;9.088;2022-07-29T06:55:07;97785.00;;;22.15;65.13
42601;BME280;28229;48.856;9.088;2022-07-29T06:57:33;97781.59;;;22.28;65.29
42601;BME280;28229;48.856;9.088;2022-07-29T07:00:00;97786.53;;;22.35;64.93
42601;BME280;28229;48.856;9.088;2022-07-29T07:02:26;97790.81;;;22.50;64.28
42601;BME280;28229;48.856;9.088;2022-07-29T07:04:52;97788.91;;;22.64;62.88
42601;BME280;28229;48.856;9.088;2022-07-29T07:07:17;97788.69;;;22.74;61.92
42601;BME280;28229;48.856;9.088;2022-07-29T07:09:43;97796.53;;;22.85;62.17
42601;BME280;28229;48.856;9.088;2022-07-29T07:12:23;97801.69;;;22.95;62.30
42601;BME280;28229;48.856;9.088;2022-07-29T07:14:49;97804.19;;;23.05;61.83
42601;BME280;28229;48.856;9.088;2022-07-29T07:17:15;97793.00;;;23.12;61.31
42601;BME280;28229;48.856;9.088;2022-07-29T07:19:40;97795.97;;;23.24;60.70
42601;BME280;28229;48.856;9.088;2022-07-29T07:22:06;97805.69;;;23.34;60.67
42601;BME280;28229;48.856;9.088;2022-07-29T07:24:32;97810.50;;;23.46;60.52
42601;BME280;28229;48.856;9.088;2022-07-29T07:26:58;97809.66;;;23.59;60.12
42601;BME280;28229;48.856;9.088;2022-07-29T07:29:24;97813.50;;;23.67;59.28
42601;BME280;28229;48.856;9.088;2022-07-29T07:31:50;97811.44;;;23.64;59.13
42601;BME280;28229;48.856;9.088;2022-07-29T07:34:15;97814.47;;;23.71;59.04
42601;BME280;28229;48.856;9.088;2022-07-29T07:36:41;97812.09;;;23.69;59.24
42601;BME280;28229;48.856;9.088;2022-07-29T07:39:07;97813.75;;;23.56;59.60
42601;BME280;28229;48.856;9.088;2022-07-29T07:41:33;97816.19;;;23.67;58.63
42601;BME280;28229;48.856;9.088;2022-07-29T07:43:59;97817.44;;;23.83;57.77
42601;BME280;28229;48.856;9.088;2022-07-29T07:46:24;97815.19;;;24.08;56.73
42601;BME280;28229;48.856;9.088;2022-07-29T07:48:50;97811.75;;;24.16;56.49
42601;BME280;28229;48.856;9.088;2022-07-29T07:51:18;97814.97;;;24.27;56.37
42601;BME280;28229;48.856;9.088;2022-07-29T07:53:44;97810.53;;;24.31;55.83
42601;BME280;28229;48.856;9.088;2022-07-29T07:56:10;97810.78;;;24.52;55.17
42601;BME280;28229;48.856;9.088;2022-07-29T07:58:36;97815.91;;;24.62;55.38
42601;BME280;28229;48.856;9.088;2022-07-29T08:01:02;97819.91;;;24.82;54.75
42601;BME280;28229;48.856;9.088;2022-07-29T08:03:28;97819.00;;;24.87;54.69
42601;BME280;28229;48.856;9.088;2022-07-29T08:05:54;97824.56;;;24.99;54.55
42601;BME280;28229;48.856;9.088;2022-07-29T08:08:20;97820.25;;;24.98;53.52
42601;BME280;28229;48.856;9.088;2022-07-29T08:10:46;97820.75;;;25.00;53.39
42601;BME280;28229;48.856;9.088;2022-07-29T08:13:20;97821.84;;;24.99;53.37
42601;BME280;28229;48.856;9.088;2022-07-29T08:15:47;97819.31;;;25.03;53.01
42601;BME280;28229;48.856;9.088;2022-07-29T08:18:13;97815.38;;;25.09;52.94
42601;BME280;28229;48.856;9.088;2022-07-29T08:20:39;97822.06;;;25.29;52.11
42601;BME280;28229;48.856;9.088;2022-07-29T08:23:07;97822.22;;;25.50;50.51
42601;BME280;28229;48.856;9.088;2022-07-29T08:25:36;97816.19;;;25.71;50.29
42601;BME280;28229;48.856;9.088;2022-07-29T08:28:03;97816.78;;;25.85;49.69
42601;BME280;28229;48.856;9.088;2022-07-29T08:30:29;97814.25;;;25.97;48.48
42601;BME280;28229;48.856;9.088;2022-07-29T08:32:55;97808.00;;;26.14;48.06
42601;BME280;28229;48.856;9.088;2022-07-29T08:35:22;97813.81;;;26.34;46.52
42601;BME280;28229;48.856;9.088;2022-07-29T08:37:48;97818.94;;;26.56;44.34
42601;BME280;28229;48.856;9.088;2022-07-29T08:40:14;97819.41;;;26.67;43.97
42601;BME280;28229;48.856;9.088;2022-07-29T08:42:40;97821.19;;;26.84;44.92
42601;BME280;28229;48.856;9.088;2022-07-29T08:45:07;97815.63;;;27.10;45.02
42601;BME280;28229;48.856;9.088;2022-07-29T08:47:33;97812.09;;;27.19;44.88
42601;BME280;28229;48.856;9.088;2022-07-29T08:49:59;97817.59;;;27.31;44.53
42601;BME280;28229;48.856;9.088;2022-07-29T08:52:25;97809.25;;;27.36;44.32
42601;BME280;28229;48.856;9.088;2022-07-29T08:54:52;97816.72;;;27.39;44.36
42601;BME280;28229;48.856;9.088;2022-07-29T08:57:19;97811.69;;;27.50;44.75
42601;BME280;28229;48.856;9.088;2022-07-29T08:59:46;97814.84;;;27.52;44.69
42601;BME280;28229;48.856;9.088;2022-07-29T09:02:19;97822.22;;;27.64;44.05
42601;BME280;28229;48.856;9.088;2022-07-29T09:04:45;97816.28;;;27.70;43.80
42601;BME280;28229;48.856;9.088;2022-07-29T09:07:15;97832.75;;;27.78;43.84
42601;BME280;28229;48.856;9.088;2022-07-29T09:09:42;97824.00;;;27.93;43.66
42601;BME280;28229;48.856;9.088;2022-07-29T09:12:11;97823.41;;;28.21;42.70
42601;BME280;28229;48.856;9.088;2022-07-29T09:14:38;97824.66;;;28.36;42.75
42601;BME280;28229;48.856;9.088;2022-07-29T09:17:04;97822.28;;;28.22;42.85
42601;BME280;28229;48.856;9.088;2022-07-29T09:19:35;97825.81;;;28.47;42.19
42601;BME280;28229;48.856;9.088;2022-07-29T09:22:06;97819.84;;;28.66;41.81
42601;BME280;28229;48.856;9.088;2022-07-29T09:27:08;97822.75;;;28.73;41.20
42601;BME280;28229;48.856;9.088;2022-07-29T09:29:35;97818.03;;;28.70;41.30
42601;BME280;28229;48.856;9.088;2022-07-29T09:32:06;97816.00;;;28.67;41.56
42601;BME280;28229;48.856;9.088;2022-07-29T09:34:33;97827.50;;;28.76;40.60
42601;BME280;28229;48.856;9.088;2022-07-29T09:36:59;97813.69;;;29.06;40.51
42601;BME280;28229;48.856;9.088;2022-07-29T09:39:33;97816.56;;;29.38;39.69
42601;BME280;28229;48.856;9.088;2022-07-29T09:42:03;97818.28;;;29.58;39.01
42601;BME280;28229;48.856;9.088;2022-07-29T09:44:49;97814.03;;;29.17;39.73
42601;BME280;28229;48.856;9.088;2022-07-29T09:47:19;97801.50;;;29.00;39.20
42601;BME280;28229;48.856;9.088;2022-07-29T09:50:01;97800.72;;;28.99;38.93
42601;BME280;28229;48.856;9.088;2022-07-29T09:52:28;97810.06;;;29.14;38.24
42601;BME280;28229;48.856;9.088;2022-07-29T09:55:09;97808.97;;;29.03;37.29
42601;BME280;28229;48.856;9.088;2022-07-29T09:57:35;97800.69;;;29.24;36.95
42601;BME280;28229;48.856;9.088;2022-07-29T10:00:07;97806.84;;;29.37;37.01
42601;BME280;28229;48.856;9.088;2022-07-29T10:02:41;97796.25;;;29.60;35.77
42601;BME280;28229;48.856;9.088;2022-07-29T10:05:21;97799.56;;;29.53;35.62
42601;BME280;28229;48.856;9.088;2022-07-29T10:07:55;97802.97;;;29.50;36.33
42601;BME280;28229;48.856;9.088;2022-07-29T10:10:27;97798.22;;;29.07;37.22
42601;BME280;28229;48.856;9.088;2022-07-29T10:13:05;97808.53;;;28.89;37.77
42601;BME280;28229;48.856;9.088;2022-07-29T10:15:34;97809.34;;;28.77;37.98
42601;BME280;28229;48.856;9.088;2022-07-29T10:18:05;97803.59;;;28.78;37.83
42601;BME280;28229;48.856;9.088;2022-07-29T10:20:31;97796.72;;;28.69;38.28
42601;BME280;28229;48.856;9.088;2022-07-29T10:22:57;97797.38;;;28.53;38.33
42601;BME280;28229;48.856;9.088;2022-07-29T10:25:24;97803.13;;;28.52;38.99
42601;BME280;28229;48.856;9.088;2022-07-29T10:27:50;97798.84;;;28.38;39.12
42601;BME280;28229;48.856;9.088;2022-07-29T10:30:18;97806.06;;;28.22;39.63
42601;BME280;28229;48.856;9.088;2022-07-29T10:41:13;97798.03;;;27.67;40.04
42601;BME280;28229;48.856;9.088;2022-07-29T10:46:25;97799.72;;;27.72;40.58
42601;BME280;28229;48.856;9.088;2022-07-29T10:49:25;97797.59;;;27.44;40.89
42601;BME280;28229;48.856;9.088;2022-07-29T10:52:06;97784.59;;;27.16;41.44
42601;BME280;28229;48.856;9.088;2022-07-29T10:54:36;97791.38;;;27.02;41.88
42601;BME280;28229;48.856;9.088;2022-07-29T10:57:19;97787.00;;;26.97;42.13
42601;BME280;28229;48.856;9.088;2022-07-29T10:59:47;97792.72;;;26.95;41.94
42601;BME280;28229;48.856;9.088;2022-07-29T11:05:00;97785.59;;;26.91;41.88
42601;BME280;28229;48.856;9.088;2022-07-29T11:07:27;97777.16;;;26.92;42.62
42601;BME280;28229;48.856;9.088;2022-07-29T11:15:12;97779.94;;;27.05;42.16
42601;BME280;28229;48.856;9.088;2022-07-29T11:20:44;97780.66;;;27.14;40.50
42601;BME280;28229;48.856;9.088;2022-07-29T11:23:32;97784.81;;;27.11;41.15
42601;BME280;28229;48.856;9.088;2022-07-29T11:29:00;97792.69;;;26.36;43.81
42601;BME280;28229;48.856;9.088;2022-07-29T11:34:16;97809.72;;;25.45;46.29
42601;BME280;28229;48.856;9.088;2022-07-29T11:39:30;97812.88;;;25.30;46.93
42601;BME280;28229;48.856;9.088;2022-07-29T11:44:58;97803.22;;;25.29;48.00
42601;BME280;28229;48.856;9.088;2022-07-29T11:47:25;97796.38;;;25.23;47.41
42601;BME280;28229;48.856;9.088;2022-07-29T11:49:53;97793.72;;;25.32;46.93
42601;BME280;28229;48.856;9.088;2022-07-29T11:52:20;97794.50;;;25.50;45.14
42601;BME280;28229;48.856;9.088;2022-07-29T11:54:50;97790.38;;;25.52;45.66
42601;BME280;28229;48.856;9.088;2022-07-29T11:57:18;97790.19;;;25.66;45.04
42601;BME280;28229;48.856;9.088;2022-07-29T11:59:45;97785.72;;;25.79;45.16
42601;BME280;28229;48.856;9.088;2022-07-29T12:02:13;97780.16;;;25.93;45.30
42601;BME280;28229;48.856;9.088;2022-07-29T12:07:27;97787.91;;;26.03;43.78
42601;BME280;28229;48.856;9.088;2022-07-29T12:09:53;97789.69;;;25.99;43.39
42601;BME280;28229;48.856;9.088;2022-07-29T12:12:20;97782.22;;;26.05;43.44
42601;BME280;28229;48.856;9.088;2022-07-29T12:14:46;97781.06;;;26.14;42.08
42601;BME280;28229;48.856;9.088;2022-07-29T12:17:30;97779.44;;;26.22;42.17
42601;BME280;28229;48.856;9.088;2022-07-29T12:19:58;97783.69;;;26.32;44.60
42601;BME280;28229;48.856;9.088;2022-07-29T12:22:31;97777.97;;;26.33;43.54
42601;BME280;28229;48.856;9.088;2022-07-29T12:25:02;97783.63;;;26.40;42.03
42601;BME280;28229;48.856;9.088;2022-07-29T12:27:29;97786.84;;;26.34;42.22
42601;BME280;28229;48.856;9.088;2022-07-29T12:29:56;97779.81;;;26.41;43.41
42601;BME280;28229;48.856;9.088;2022-07-29T12:32:22;97788.75;;;26.33;43.54
42601;BME280;28229;48.856;9.088;2022-07-29T12:34:50;97788.25;;;26.40;43.36
42601;BME280;28229;48.856;9.088;2022-07-29T12:37:16;97786.94;;;26.46;42.88
42601;BME280;28229;48.856;9.088;2022-07-29T12:39:42;97793.94;;;26.47;42.42
42601;BME280;28229;48.856;9.088;2022-07-29T12:42:13;97781.91;;;26.36;43.62
42601;BME280;28229;48.856;9.088;2022-07-29T12:44:49;97775.03;;;26.17;42.77
42601;BME280;28229;48.856;9.088;2022-07-29T12:47:17;97779.22;;;25.89;43.04
42601;BME280;28229;48.856;9.088;2022-07-29T12:49:44;97790.00;;;25.89;44.02
42601;BME280;28229;48.856;9.088;2022-07-29T12:54:54;97787.50;;;25.66;45.74
42601;BME280;28229;48.856;9.088;2022-07-29T12:57:20;97788.78;;;25.60;46.55
42601;BME280;28229;48.856;9.088;2022-07-29T13:02:26;97795.13;;;25.64;47.90
42601;BME280;28229;48.856;9.088;2022-07-29T13:04:59;97795.13;;;25.64;48.29
42601;BME280;28229;48.856;9.088;2022-07-29T13:07:27;97800.34;;;25.52;48.25
42601;BME280;28229;48.856;9.088;2022-07-29T13:10:15;97803.22;;;25.38;47.55
42601;BME280;28229;48.856;9.088;2022-07-29T13:13:05;97798.59;;;25.21;47.19
42601;BME280;28229;48.856;9.088;2022-07-29T13:15:32;97807.78;;;25.20;47.61
42601;BME280;28229;48.856;9.088;2022-07-29T13:17:58;97809.38;;;25.21;48.41
42601;BME280;28229;48.856;9.088;2022-07-29T13:20:27;97814.09;;;25.06;48.26
42601;BME280;28229;48.856;9.088;2022-07-29T13:22:59;97816.94;;;25.01;46.87
42601;BME280;28229;48.856;9.088;2022-07-29T13:25:30;97816.25;;;24.69;47.28
42601;BME280;28229;48.856;9.088;2022-07-29T13:27:58;97816.66;;;24.54;47.76
42601;BME280;28229;48.856;9.088;2022-07-29T13:30:25;97822.63;;;24.42;48.34
42601;BME280;28229;48.856;9.088;2022-07-29T13:32:52;97813.78;;;24.50;48.34
42601;BME280;28229;48.856;9.088;2022-07-29T13:35:18;97811.75;;;24.56;48.43
42601;BME280;28229;48.856;9.088;2022-07-29T13:37:44;97812.28;;;24.76;48.55
42601;BME280;28229;48.856;9.088;2022-07-29T13:40:11;97818.19;;;24.95;46.94
42601;BME280;28229;48.856;9.088;2022-07-29T13:42:38;97802.06;;;25.21;47.24
42601;BME280;28229;48.856;9.088;2022-07-29T13:45:05;97798.63;;;25.38;46.78
42601;BME280;28229;48.856;9.088;2022-07-29T13:47:32;97800.97;;;25.22;47.65
42601;BME280;28229;48.856;9.088;2022-07-29T13:49:58;97801.44;;;25.51;46.67
42601;BME280;28229;48.856;9.088;2022-07-29T13:52:24;97798.75;;;25.59;46.95
42601;BME280;28229;48.856;9.088;2022-07-29T13:54:50;97795.28;;;25.59;46.77
42601;BME280;28229;48.856;9.088;2022-07-29T13:57:15;97797.66;;;25.69;46.65
42601;BME280;28229;48.856;9.088;2022-07-29T13:59:41;97785.25;;;25.77;46.39
42601;BME280;28229;48.856;9.088;2022-07-29T14:02:09;97784.78;;;25.83;46.82
42601;BME280;28229;48.856;9.088;2022-07-29T14:04:36;97784.94;;;25.96;46.95